Time;durP1;ratioP1;P1;durP2;ratioP2;P2;SDS_P1;SDS_P2;PMS_P1;PMS_P2;Temp;Humidity;BMP_temperature;BMP_pressure;BME280_temperature;BME280_humidity;BME280_pressure;Samples;Min_cycle;Max_cycle;Signal;HPM_P1;HPM_P2
2023/08/09 00:02:09;;;;;;;;;;;;;;;14.14;83.24;95440.81;5117086;27;1028;-57
2023/08/09 00:04:35;;;;;;;;;;;;;;;14.02;82.75;95440.38;5135352;27;1918;-58
2023/08/09 00:07:01;;;;;;;;;;;;;;;13.94;82.60;95445.78;5135549;27;965;-58
2023/08/09 00:09:27;;;;;;;;;;;;;;;13.88;82.97;95430.34;5135264;27;981;-58
2023/08/09 00:11:53;;;;;;;;;;;;;;;13.60;83.36;95433.47;5135131;27;1048;-57
2023/08/09 00:14:19;;;;;;;;;;;;;;;13.33;84.45;95448.16;5134954;27;1485;-57
2023/08/09 00:16:45;;;;;;;;;;;;;;;13.27;84.71;95441.59;5135288;27;971;-57
2023/08/09 00:19:11;;;;;;;;;;;;;;;13.11;86.08;95437.09;5132641;27;1618;-57
2023/08/09 00:21:37;;;;;;;;;;;;;;;13.39;85.39;95434.03;5114414;28;921;-57
2023/08/09 00:24:03;;;;;;;;;;;;;;;13.46;84.39;95437.72;5114520;28;1913;-57
2023/08/09 00:26:29;;;;;;;;;;;;;;;13.52;84.11;95442.38;5114322;28;999;-57
2023/08/09 00:28:55;;;;;;;;;;;;;;;13.47;84.56;95442.91;5114203;28;1024;-57
2023/08/09 00:31:21;;;;;;;;;;;;;;;13.55;84.53;95435.84;5114198;28;1168;-58
2023/08/09 00:33:47;;;;;;;;;;;;;;;13.58;84.42;95438.19;5114217;28;1094;-57
2023/08/09 00:36:15;;;;;;;;;;;;;;;13.57;84.64;95441.88;5114271;28;969;-57
2023/08/09 00:38:41;;;;;;;;;;;;;;;13.51;84.38;95439.88;5114204;28;992;-57
2023/08/09 00:41:07;;;;;;;;;;;;;;;13.43;84.62;95440.72;5114116;28;1048;-58
2023/08/09 00:43:33;;;;;;;;;;;;;;;13.35;84.51;95436.22;5113880;28;1906;-58
2023/08/09 00:45:59;;;;;;;;;;;;;;;13.30;85.07;95435.91;5114282;28;1052;-57
2023/08/09 00:48:25;;;;;;;;;;;;;;;13.24;84.18;95441.91;5114117;28;1044;-58
2023/08/09 00:50:52;;;;;;;;;;;;;;;13.06;84.90;95437.56;5114102;28;1254;-57
2023/08/09 00:53:20;;;;;;;;;;;;;;;13.22;84.37;95431.38;5113500;28;1019;-58
2023/08/09 00:55:46;;;;;;;;;;;;;;;13.13;84.68;95437.75;5114021;28;1048;-57
2023/08/09 00:58:12;;;;;;;;;;;;;;;13.08;84.96;95438.25;5095665;28;1208;-57
2023/08/09 01:00:38;;;;;;;;;;;;;;;12.98;84.66;95405.38;5113879;28;1087;-58
2023/08/09 01:03:04;;;;;;;;;;;;;;;13.15;84.33;95435.72;5113694;28;1901;-57
2023/08/09 01:05:36;;;;;;;;;;;;;;;13.17;84.54;95440.94;5096032;28;1036;-58
2023/08/09 01:08:11;;;;;;;;;;;;;;;12.92;85.14;95435.59;5113881;28;1091;-58
2023/08/09 01:10:49;;;;;;;;;;;;;;;13.23;84.35;95441.09;5113796;28;973;-58
2023/08/09 01:13:19;;;;;;;;;;;;;;;12.85;85.32;95437.28;5113672;28;1032;-57
2023/08/09 01:15:46;;;;;;;;;;;;;;;12.65;85.75;95432.25;5113905;28;956;-57
2023/08/09 01:18:13;;;;;;;;;;;;;;;12.73;86.73;95425.19;5113784;28;995;-57
2023/08/09 01:20:39;;;;;;;;;;;;;;;12.99;85.30;95428.53;5128304;28;1287;-58
2023/08/09 01:23:09;;;;;;;;;;;;;;;13.00;84.94;95429.38;5134152;28;1905;-58
2023/08/09 01:25:35;;;;;;;;;;;;;;;12.70;86.47;95429.88;5134558;28;1036;-58
2023/08/09 01:28:03;;;;;;;;;;;;;;;12.60;86.02;95428.38;5134143;28;1087;-57
2023/08/09 01:30:29;;;;;;;;;;;;;;;12.75;86.02;95429.38;5134086;28;1106;-58
2023/08/09 01:32:55;;;;;;;;;;;;;;;12.78;85.00;95430.88;5133997;28;1309;-57
2023/08/09 01:35:22;;;;;;;;;;;;;;;12.84;85.50;95424.84;5134115;28;1021;-57
2023/08/09 01:37:58;;;;;;;;;;;;;;;12.93;85.44;95425.69;5134284;28;998;-57
2023/08/09 01:40:25;;;;;;;;;;;;;;;12.94;85.51;95438.09;5134405;28;949;-57
2023/08/09 01:42:52;;;;;;;;;;;;;;;12.86;85.08;95433.56;5134166;28;1918;-57
2023/08/09 01:45:19;;;;;;;;;;;;;;;12.80;85.50;95428.88;5133957;28;1082;-58
2023/08/09 01:47:45;;;;;;;;;;;;;;;12.70;85.61;95429.88;5115798;28;1079;-58
2023/08/09 01:50:18;;;;;;;;;;;;;;;12.47;85.78;95427.00;5133961;28;1261;-58
2023/08/09 01:52:44;;;;;;;;;;;;;;;12.47;85.97;95429.69;5133944;28;973;-58
2023/08/09 01:55:13;;;;;;;;;;;;;;;12.60;85.99;95429.22;5115698;28;1609;-57
2023/08/09 01:57:39;;;;;;;;;;;;;;;12.38;87.06;95428.00;5134201;28;969;-58
2023/08/09 02:00:08;;;;;;;;;;;;;;;12.63;85.60;95425.34;5134022;28;1028;-58
2023/08/09 02:02:34;;;;;;;;;;;;;;;12.67;86.22;95427.56;5133787;27;992;-58
2023/08/09 02:05:00;;;;;;;;;;;;;;;12.62;85.48;95421.84;5137834;27;1902;-58
2023/08/09 02:07:26;;;;;;;;;;;;;;;12.48;85.71;95419.81;5119164;27;2023;-58
2023/08/09 02:09:52;;;;;;;;;;;;;;;12.66;84.78;95423.19;5117284;28;1063;-58
2023/08/09 02:12:18;;;;;;;;;;;;;;;12.44;85.70;95426.50;5117151;28;973;-58
2023/08/09 02:14:44;;;;;;;;;;;;;;;12.33;86.05;95426.81;5117026;28;1230;-57
2023/08/09 02:17:10;;;;;;;;;;;;;;;12.32;86.23;95433.22;5116934;28;1078;-58
2023/08/09 02:19:36;;;;;;;;;;;;;;;12.40;86.30;95435.88;5116949;28;1374;-57
2023/08/09 02:22:03;;;;;;;;;;;;;;;12.25;86.65;95436.53;5116716;28;1028;-58
2023/08/09 02:24:28;;;;;;;;;;;;;;;12.14;86.00;95439.53;5116539;28;1984;-58
2023/08/09 02:26:54;;;;;;;;;;;;;;;12.03;87.46;95438.00;5116642;28;1087;-58
2023/08/09 02:29:20;;;;;;;;;;;;;;;12.18;86.83;95437.34;5116625;28;1121;-58
2023/08/09 02:31:46;;;;;;;;;;;;;;;12.18;85.96;95443.56;5107055;28;1234;-57
2023/08/09 02:34:12;;;;;;;;;;;;;;;12.06;86.48;95442.19;5095974;28;1029;-56
2023/08/09 02:36:38;;;;;;;;;;;;;;;12.06;86.10;95444.84;5096033;28;1103;-57
2023/08/09 02:39:05;;;;;;;;;;;;;;;11.91;86.86;95445.50;5096019;28;1028;-57
2023/08/09 02:41:31;;;;;;;;;;;;;;;11.90;87.45;95451.84;5096070;28;1028;-58
2023/08/09 02:43:57;;;;;;;;;;;;;;;12.00;86.78;95449.03;5096014;28;1988;-57
2023/08/09 02:46:23;;;;;;;;;;;;;;;12.26;86.46;95448.94;5095769;28;1033;-57
2023/08/09 02:48:50;;;;;;;;;;;;;;;12.40;85.63;95443.94;5095830;28;1008;-58
2023/08/09 02:51:16;;;;;;;;;;;;;;;12.44;85.83;95446.09;5095678;28;1040;-57
2023/08/09 02:54:01;;;;;;;;;;;;;;;12.26;86.09;95454.31;5095760;28;1549;-57
2023/08/09 02:56:27;;;;;;;;;;;;;;;12.10;86.03;95451.56;5095608;28;1095;-57
2023/08/09 02:58:53;;;;;;;;;;;;;;;11.93;86.68;95457.88;5095654;28;996;-57
2023/08/09 03:01:22;;;;;;;;;;;;;;;11.87;86.44;95460.16;5095466;28;1036;-57
2023/08/09 03:03:48;;;;;;;;;;;;;;;11.90;86.71;95465.25;5095437;28;1906;-57
2023/08/09 03:06:14;;;;;;;;;;;;;;;11.93;86.25;95461.38;5095610;28;1041;-58
2023/08/09 03:08:40;;;;;;;;;;;;;;;11.89;86.43;95462.69;5095411;28;1040;-57
2023/08/09 03:11:06;;;;;;;;;;;;;;;11.89;86.64;95462.69;5095279;28;1044;-57
2023/08/09 03:13:32;;;;;;;;;;;;;;;11.85;86.34;95456.81;5095183;28;1119;-57
2023/08/09 03:15:58;;;;;;;;;;;;;;;11.80;86.70;95459.16;5094531;28;1033;-57
2023/08/09 03:18:25;;;;;;;;;;;;;;;11.92;86.41;95465.09;5077204;28;1083;-57
2023/08/09 03:20:52;;;;;;;;;;;;;;;11.90;87.04;95475.13;5111751;28;1303;-57
2023/08/09 03:23:18;;;;;;;;;;;;;;;11.79;87.18;95472.72;5097243;28;1909;-58
2023/08/09 03:25:44;;;;;;;;;;;;;;;11.73;86.47;95480.38;5097384;28;1020;-58
2023/08/09 03:28:10;;;;;;;;;;;;;;;11.95;86.26;95480.00;5115690;28;1036;-57
2023/08/09 03:30:36;;;;;;;;;;;;;;;11.99;86.58;95484.03;5115371;28;1969;-58
2023/08/09 03:33:03;;;;;;;;;;;;;;;11.96;86.56;95482.50;5135339;27;1142;-58
2023/08/09 03:35:30;;;;;;;;;;;;;;;11.78;86.45;95492.44;5135770;27;1071;-57
2023/08/09 03:37:55;;;;;;;;;;;;;;;11.81;87.05;95494.81;5135750;27;1032;-57
2023/08/09 03:40:21;;;;;;;;;;;;;;;11.88;87.02;95491.31;5135853;27;1026;-57
2023/08/09 03:42:47;;;;;;;;;;;;;;;11.99;86.94;95497.41;5135792;27;1914;-57
2023/08/09 03:45:13;;;;;;;;;;;;;;;11.85;87.19;95490.81;5135653;27;995;-57
2023/08/09 03:47:39;;;;;;;;;;;;;;;11.90;86.39;95488.53;5135669;27;965;-57
2023/08/09 03:50:06;;;;;;;;;;;;;;;11.85;86.33;95493.47;5135473;27;1107;-57
2023/08/09 03:52:32;;;;;;;;;;;;;;;11.64;86.75;95496.56;5135655;27;977;-56
2023/08/09 03:54:58;;;;;;;;;;;;;;;11.60;88.07;95500.56;5135504;27;1032;-56
2023/08/09 03:57:24;;;;;;;;;;;;;;;11.59;87.84;95497.06;5135360;27;1094;-57
2023/08/09 03:59:50;;;;;;;;;;;;;;;11.67;87.72;95498.94;5135330;27;1036;-56
2023/08/09 04:02:17;;;;;;;;;;;;;;;11.81;87.86;95497.50;5135527;27;1031;-57
2023/08/09 04:04:44;;;;;;;;;;;;;;;11.86;87.68;95492.50;5135188;27;1905;-57
2023/08/09 04:07:10;;;;;;;;;;;;;;;11.97;88.37;95497.59;5117011;27;1040;-57
2023/08/09 04:09:36;;;;;;;;;;;;;;;12.25;87.46;95502.72;5135246;27;1057;-57
2023/08/09 04:12:03;;;;;;;;;;;;;;;12.50;86.81;95503.59;5135187;27;1036;-57
2023/08/09 04:14:29;;;;;;;;;;;;;;;12.54;87.13;95504.13;5135082;27;1031;-58
2023/08/09 04:16:58;;;;;;;;;;;;;;;12.69;86.74;95508.69;5135106;27;980;-58
2023/08/09 04:19:26;;;;;;;;;;;;;;;12.76;87.02;95511.53;5130645;27;1634;-59
2023/08/09 04:21:53;;;;;;;;;;;;;;;12.74;87.12;95510.03;5114642;28;1040;-58
2023/08/09 04:24:19;;;;;;;;;;;;;;;12.83;86.72;95509.88;5114491;28;1905;-57
2023/08/09 04:26:45;;;;;;;;;;;;;;;12.94;87.06;95511.41;5095661;28;1000;-57
2023/08/09 04:29:11;;;;;;;;;;;;;;;13.29;85.89;95514.75;5114210;28;1125;-58
2023/08/09 04:31:38;;;;;;;;;;;;;;;13.38;86.18;95513.78;5114085;28;1099;-57
2023/08/09 04:34:08;;;;;;;;;;;;;;;13.29;87.01;95512.06;5114110;28;1036;-57
2023/08/09 04:36:34;;;;;;;;;;;;;;;13.41;85.93;95508.06;5114465;28;1139;-57
2023/08/09 04:39:00;;;;;;;;;;;;;;;13.54;86.86;95512.06;5114244;28;1016;-59
2023/08/09 04:41:26;;;;;;;;;;;;;;;13.54;87.11;95507.53;5114319;28;969;-58
2023/08/09 04:43:52;;;;;;;;;;;;;;;13.66;85.60;95508.03;5114230;28;1915;-59
2023/08/09 04:46:18;;;;;;;;;;;;;;;13.85;85.70;95517.56;5095872;28;1072;-58
2023/08/09 04:48:45;;;;;;;;;;;;;;;13.97;84.31;95508.09;5113991;28;1016;-58
2023/08/09 04:51:11;;;;;;;;;;;;;;;14.19;80.09;95513.72;5114009;28;1044;-57
2023/08/09 04:53:37;;;;;;;;;;;;;;;14.29;80.98;95510.84;5114044;28;992;-58
2023/08/09 04:56:03;;;;;;;;;;;;;;;14.38;81.34;95510.63;5114015;28;1032;-57
2023/08/09 04:58:30;;;;;;;;;;;;;;;14.40;80.34;95510.44;5113835;28;1051;-59
2023/08/09 05:00:56;;;;;;;;;;;;;;;14.52;81.17;95516.25;5095991;28;981;-59
2023/08/09 05:03:23;;;;;;;;;;;;;;;14.87;79.44;95517.56;5113197;28;1886;-58
2023/08/09 05:05:49;;;;;;;;;;;;;;;14.94;76.86;95518.53;5095398;28;1032;-59
2023/08/09 05:08:15;;;;;;;;;;;;;;;14.81;77.50;95526.38;5113341;28;958;-59
2023/08/09 05:10:41;;;;;;;;;;;;;;;14.84;79.86;95523.34;5112812;28;977;-58
2023/08/09 05:13:07;;;;;;;;;;;;;;;15.02;78.32;95518.50;5113364;28;1075;-58
2023/08/09 05:15:33;;;;;;;;;;;;;;;15.08;78.52;95516.09;5113769;28;1095;-58
2023/08/09 05:17:59;;;;;;;;;;;;;;;15.29;78.92;95518.97;5113902;28;1039;-58
2023/08/09 05:20:25;;;;;;;;;;;;;;;15.52;78.61;95518.09;5126381;28;1315;-58
2023/08/09 05:22:51;;;;;;;;;;;;;;;15.26;77.85;95515.78;5134060;28;1965;-57
2023/08/09 05:25:17;;;;;;;;;;;;;;;15.40;77.47;95506.91;5134017;28;1047;-58
2023/08/09 05:27:48;;;;;;;;;;;;;;;15.37;77.30;95508.09;5133997;28;1090;-59
2023/08/09 05:30:14;;;;;;;;;;;;;;;15.30;75.32;95509.84;5134352;28;961;-58
2023/08/09 05:32:40;;;;;;;;;;;;;;;15.40;77.06;95510.44;5133932;28;1088;-59
2023/08/09 05:35:06;;;;;;;;;;;;;;;15.62;78.38;95513.28;5133981;28;972;-58
2023/08/09 05:37:33;;;;;;;;;;;;;;;15.66;77.19;95508.34;5133848;27;1035;-58
2023/08/09 05:39:59;;;;;;;;;;;;;;;15.71;76.82;95517.56;5138144;27;976;-58
2023/08/09 05:42:24;;;;;;;;;;;;;;;15.63;77.80;95512.22;5137891;27;973;-58
2023/08/09 05:44:51;;;;;;;;;;;;;;;15.73;77.87;95520.06;5137923;27;1989;-58
2023/08/09 05:47:17;;;;;;;;;;;;;;;15.73;76.75;95515.53;5137788;27;1027;-59
2023/08/09 05:49:44;;;;;;;;;;;;;;;16.15;76.63;95519.47;5138205;27;961;-59
2023/08/09 05:52:10;;;;;;;;;;;;;;;16.46;73.21;95518.41;5137633;27;1000;-59
2023/08/09 05:54:37;;;;;;;;;;;;;;;16.50;73.05;95519.69;5137804;27;1032;-58
2023/08/09 05:57:03;;;;;;;;;;;;;;;16.52;74.59;95522.22;5137726;27;973;-58
2023/08/09 05:59:30;;;;;;;;;;;;;;;16.75;74.76;95522.06;5137834;27;956;-58
2023/08/09 06:01:56;;;;;;;;;;;;;;;16.71;74.82;95524.31;5137901;27;969;-58
2023/08/09 06:04:22;;;;;;;;;;;;;;;16.95;71.48;95530.44;5137764;27;1918;-58
2023/08/09 06:06:48;;;;;;;;;;;;;;;17.16;72.07;95525.03;5136922;27;1079;-58
2023/08/09 06:09:14;;;;;;;;;;;;;;;17.02;72.00;95517.00;5137487;27;985;-59
2023/08/09 06:11:40;;;;;;;;;;;;;;;17.02;71.77;95522.41;5137372;27;943;-59
2023/08/09 06:14:06;;;;;;;;;;;;;;;17.15;73.07;95515.25;5137325;27;928;-59
2023/08/09 06:16:34;;;;;;;;;;;;;;;17.44;72.31;95516.13;5137457;27;1036;-59
2023/08/09 06:19:00;;;;;;;;;;;;;;;17.60;68.94;95515.00;5136784;27;1594;-59
2023/08/09 06:21:26;;;;;;;;;;;;;;;17.65;69.79;95506.31;5116834;28;929;-58
2023/08/09 06:23:52;;;;;;;;;;;;;;;18.11;69.69;95516.66;5116766;28;1996;-59
2023/08/09 06:26:18;;;;;;;;;;;;;;;18.28;69.11;95520.69;5116383;28;1024;-59
2023/08/09 06:28:44;;;;;;;;;;;;;;;18.04;71.54;95507.66;5116517;28;1031;-59
2023/08/09 06:31:10;;;;;;;;;;;;;;;18.11;67.79;95506.66;5116518;28;1206;-59
2023/08/09 06:33:42;;;;;;;;;;;;;;;18.27;69.72;95500.09;5116311;28;1044;-59
2023/08/09 06:36:09;;;;;;;;;;;;;;;18.61;69.25;95497.50;5116663;28;1044;-59
2023/08/09 06:38:35;;;;;;;;;;;;;;;18.95;66.50;95504.72;5116615;28;986;-58
2023/08/09 06:41:01;;;;;;;;;;;;;;;18.97;64.64;95504.53;5116257;28;1059;-59
2023/08/09 06:43:28;;;;;;;;;;;;;;;19.18;65.07;95490.84;5116041;28;1991;-59
2023/08/09 06:45:56;;;;;;;;;;;;;;;19.48;64.08;95493.97;5116237;28;1039;-59
2023/08/09 06:48:22;;;;;;;;;;;;;;;19.48;60.67;95498.56;5098074;28;1044;-58
2023/08/09 06:50:48;;;;;;;;;;;;;;;19.63;59.64;95498.34;5114954;28;1039;-59
2023/08/09 06:53:14;;;;;;;;;;;;;;;19.94;59.47;95495.03;5097911;28;1001;-59
2023/08/09 06:55:40;;;;;;;;;;;;;;;19.93;62.06;95492.53;5116222;28;999;-59
2023/08/09 06:58:06;;;;;;;;;;;;;;;19.91;63.52;95492.72;5116146;28;1024;-58
2023/08/09 07:00:32;;;;;;;;;;;;;;;20.09;61.52;95492.91;5115844;28;1098;-58
2023/08/09 07:02:59;;;;;;;;;;;;;;;20.16;61.56;95489.34;5115952;28;1886;-58
2023/08/09 07:05:25;;;;;;;;;;;;;;;20.43;60.85;95485.50;5115833;28;1055;-59
2023/08/09 07:07:51;;;;;;;;;;;;;;;20.72;58.18;95482.50;5115832;28;969;-59
2023/08/09 07:10:17;;;;;;;;;;;;;;;20.88;57.42;95475.72;5115895;28;1047;-59
2023/08/09 07:12:43;;;;;;;;;;;;;;;20.76;58.04;95467.41;5115698;28;1036;-58
2023/08/09 07:15:10;;;;;;;;;;;;;;;20.96;58.35;95472.72;5115591;28;1067;-59
2023/08/09 07:17:37;;;;;;;;;;;;;;;21.17;58.55;95471.53;5115521;28;1111;-58
2023/08/09 07:20:07;;;;;;;;;;;;;;;21.26;58.14;95470.22;5125209;27;1375;-59
2023/08/09 07:22:36;;;;;;;;;;;;;;;21.41;59.25;95478.06;5135930;27;1224;-58
2023/08/09 07:25:02;;;;;;;;;;;;;;;21.23;56.89;95479.66;5117630;27;1905;-58
2023/08/09 07:27:28;;;;;;;;;;;;;;;21.33;54.80;95475.63;5135819;27;1043;-58
2023/08/09 07:29:54;;;;;;;;;;;;;;;21.55;57.92;95470.66;5135840;27;1028;-58
2023/08/09 07:32:20;;;;;;;;;;;;;;;21.75;57.80;95475.94;5135510;27;1098;-59
2023/08/09 07:34:46;;;;;;;;;;;;;;;21.64;57.98;95482.94;5135737;27;1044;-58
2023/08/09 07:37:12;;;;;;;;;;;;;;;21.55;57.67;95463.38;5135488;27;1059;-58
2023/08/09 07:39:38;;;;;;;;;;;;;;;21.54;58.86;95472.56;5135691;27;969;-59
2023/08/09 07:42:04;;;;;;;;;;;;;;;21.58;60.43;95471.06;5135704;27;1024;-59
2023/08/09 07:44:30;;;;;;;;;;;;;;;21.86;59.32;95469.78;5135885;27;1994;-60
2023/08/09 07:46:55;;;;;;;;;;;;;;;22.00;59.34;95468.56;5135824;27;988;-58
2023/08/09 07:49:21;;;;;;;;;;;;;;;22.27;55.34;95472.94;5117472;27;1048;-59
2023/08/09 07:51:47;;;;;;;;;;;;;;;22.46;54.58;95460.16;5135589;27;913;-58
2023/08/09 07:54:13;;;;;;;;;;;;;;;22.53;53.19;95467.19;5135624;27;1044;-58
2023/08/09 07:56:39;;;;;;;;;;;;;;;22.60;55.38;95457.03;5135547;27;1111;-58
2023/08/09 07:59:05;;;;;;;;;;;;;;;22.85;55.20;95447.09;5135553;27;1048;-58
2023/08/09 08:01:32;;;;;;;;;;;;;;;22.75;55.39;95451.19;5135104;27;957;-58
2023/08/09 08:03:58;;;;;;;;;;;;;;;22.34;51.86;95452.75;5135223;27;1906;-58
2023/08/09 08:06:24;;;;;;;;;;;;;;;22.45;56.24;95447.59;5135134;27;1090;-58
2023/08/09 08:08:51;;;;;;;;;;;;;;;22.91;54.61;95443.44;5135423;27;1015;-59
2023/08/09 08:11:17;;;;;;;;;;;;;;;22.86;55.42;95437.81;5135166;27;1040;-58
2023/08/09 08:13:43;;;;;;;;;;;;;;;23.02;53.65;95430.91;5135203;27;973;-58
2023/08/09 08:16:09;;;;;;;;;;;;;;;23.07;53.20;95434.63;5135131;27;996;-58
2023/08/09 08:18:35;;;;;;;;;;;;;;;23.19;53.11;95434.66;5116775;27;894;-58
2023/08/09 08:21:03;;;;;;;;;;;;;;;23.35;53.25;95433.13;5117353;28;1616;-59
2023/08/09 08:23:30;;;;;;;;;;;;;;;23.34;51.56;95429.59;5096029;28;1910;-58
2023/08/09 08:25:56;;;;;;;;;;;;;;;23.22;49.37;95433.34;5114541;28;972;-58
2023/08/09 08:28:22;;;;;;;;;;;;;;;23.42;52.49;95417.50;5114381;28;1059;-58
2023/08/09 08:30:48;;;;;;;;;;;;;;;23.26;53.06;95416.31;5114386;28;1218;-59
2023/08/09 08:33:14;;;;;;;;;;;;;;;23.34;51.51;95421.41;5114381;28;921;-59
2023/08/09 08:35:48;;;;;;;;;;;;;;;23.51;52.21;95420.72;5096221;28;1000;-58
2023/08/09 08:38:15;;;;;;;;;;;;;;;23.51;49.75;95421.56;5114022;28;1063;-57
2023/08/09 08:40:42;;;;;;;;;;;;;;;23.78;51.10;95416.47;5114354;28;1024;-58
2023/08/09 08:43:09;;;;;;;;;;;;;;;24.01;52.54;95419.44;5113817;28;1988;-58
2023/08/09 08:45:36;;;;;;;;;;;;;;;23.90;48.28;95421.97;5113869;28;945;-59
2023/08/09 08:48:04;;;;;;;;;;;;;;;23.66;50.34;95412.91;5118836;27;2532;-58
2023/08/09 08:50:31;;;;;;;;;;;;;;;23.84;50.47;95408.41;5134430;27;1028;-59
2023/08/09 08:52:58;;;;;;;;;;;;;;;23.74;51.39;95406.25;5134377;27;1079;-58
2023/08/09 08:55:24;;;;;;;;;;;;;;;23.83;48.58;95402.13;5134588;27;991;-58
2023/08/09 08:57:52;;;;;;;;;;;;;;;24.16;48.58;95387.00;5134534;27;931;-58
2023/08/09 09:00:20;;;;;;;;;;;;;;;24.19;51.48;95392.00;5134580;27;980;-58
2023/08/09 09:02:46;;;;;;;;;;;;;;;24.13;47.96;95395.66;5134281;28;1028;-58
2023/08/09 09:05:13;;;;;;;;;;;;;;;24.26;49.70;95379.00;5134212;27;1981;-58
2023/08/09 09:07:39;;;;;;;;;;;;;;;24.39;49.79;95380.66;5134578;27;1025;-59
2023/08/09 09:10:09;;;;;;;;;;;;;;;24.42;49.90;95387.56;5134660;28;1005;-58
2023/08/09 09:12:35;;;;;;;;;;;;;;;24.13;50.39;95377.41;5134287;27;1020;-57
2023/08/09 09:15:04;;;;;;;;;;;;;;;24.15;48.92;95380.72;5138838;27;1020;-59
2023/08/09 09:17:40;;;;;;;;;;;;;;;24.49;49.73;95374.56;5138575;27;1083;-61
2023/08/09 09:20:10;;;;;;;;;;;;;;;24.20;49.82;95379.97;5138812;27;1622;-60
2023/08/09 09:22:36;;;;;;;;;;;;;;;24.39;50.07;95374.34;5138535;27;1258;-59
2023/08/09 09:25:07;;;;;;;;;;;;;;;24.47;47.43;95383.00;5138678;27;1991;-58
2023/08/09 09:27:33;;;;;;;;;;;;;;;24.43;50.45;95354.50;5138361;27;1036;-58
2023/08/09 09:30:05;;;;;;;;;;;;;;;24.51;50.24;95358.75;5138560;27;973;-59
2023/08/09 09:32:32;;;;;;;;;;;;;;;24.61;48.81;95353.50;5138040;27;1095;-59
2023/08/09 09:34:58;;;;;;;;;;;;;;;24.60;50.02;95351.84;5138489;27;1007;-59
2023/08/09 09:37:28;;;;;;;;;;;;;;;24.68;49.00;95350.63;5138487;27;1055;-58
2023/08/09 09:39:54;;;;;;;;;;;;;;;24.84;47.06;95344.38;5138084;27;1036;-58
2023/08/09 09:42:33;;;;;;;;;;;;;;;24.99;50.93;95335.59;5136959;27;2499;-59
2023/08/09 09:45:04;;;;;;;;;;;;;;;25.16;47.73;95334.78;5137296;27;2577;-58
2023/08/09 09:47:34;;;;;;;;;;;;;;;24.99;46.62;95332.03;5137622;27;2926;-58
2023/08/09 09:50:03;;;;;;;;;;;;;;;24.84;48.95;95325.22;5138265;27;983;-58
2023/08/09 09:52:31;;;;;;;;;;;;;;;25.00;48.45;95318.09;5138067;27;949;-58
2023/08/09 09:54:57;;;;;;;;;;;;;;;25.16;48.91;95313.72;5138089;27;975;-58
2023/08/09 09:57:23;;;;;;;;;;;;;;;25.16;51.34;95310.16;5137746;27;995;-58
2023/08/09 09:59:50;;;;;;;;;;;;;;;25.09;48.94;95307.59;5137626;27;1102;-58
2023/08/09 10:02:17;;;;;;;;;;;;;;;25.24;50.05;95312.50;5137830;27;1039;-58
2023/08/09 10:04:44;;;;;;;;;;;;;;;25.37;49.75;95309.44;5137667;27;1906;-58
2023/08/09 10:07:11;;;;;;;;;;;;;;;25.37;48.94;95309.44;5137841;27;1043;-57
2023/08/09 10:09:37;;;;;;;;;;;;;;;25.46;49.53;95309.81;5137644;27;1039;-58
2023/08/09 10:12:04;;;;;;;;;;;;;;;25.55;49.73;95304.75;5137498;27;1056;-58
2023/08/09 10:14:31;;;;;;;;;;;;;;;25.43;48.86;95305.69;5137657;27;1052;-58
2023/08/09 10:16:59;;;;;;;;;;;;;;;25.60;49.42;95307.56;5137611;27;965;-58
2023/08/09 10:19:25;;;;;;;;;;;;;;;25.57;47.10;95297.13;5119050;27;1615;-59
2023/08/09 10:21:53;;;;;;;;;;;;;;;25.42;49.72;95295.84;5136953;27;1028;-61
2023/08/09 10:24:19;;;;;;;;;;;;;;;25.41;48.54;95287.88;5117264;27;1980;-58
2023/08/09 10:26:46;;;;;;;;;;;;;;;25.49;48.48;95280.03;5137151;27;1036;-60
2023/08/09 10:29:13;;;;;;;;;;;;;;;25.60;48.25;95283.75;5137394;27;1012;-59
2023/08/09 10:31:53;;;;;;;;;;;;;;;25.71;49.52;95266.41;5137194;27;1214;-60
2023/08/09 10:34:20;;;;;;;;;;;;;;;25.65;47.06;95267.41;5137053;27;1087;-60
2023/08/09 10:36:51;;;;;;;;;;;;;;;25.76;49.27;95262.06;5137159;27;965;-60
2023/08/09 10:39:20;;;;;;;;;;;;;;;25.77;47.60;95263.72;5136963;27;1022;-60
2023/08/09 10:41:57;;;;;;;;;;;;;;;25.72;48.24;95259.00;5137314;27;1024;-60
2023/08/09 10:44:33;;;;;;;;;;;;;;;25.77;48.60;95253.59;5136842;27;1998;-60
2023/08/09 10:47:25;;;;;;;;;;;;;;;25.99;48.69;95250.91;5137259;27;1084;-60
2023/08/09 10:49:51;;;;;;;;;;;;;;;25.94;45.76;95245.34;5133291;27;1316;-60
2023/08/09 10:52:18;;;;;;;;;;;;;;;26.20;47.56;95234.66;5137072;27;1128;-59
2023/08/09 10:54:45;;;;;;;;;;;;;;;26.31;47.76;95236.44;5136975;27;1025;-58
2023/08/09 10:57:11;;;;;;;;;;;;;;;26.07;45.83;95242.22;5136665;27;1036;-59
2023/08/09 10:59:38;;;;;;;;;;;;;;;26.02;44.96;95238.59;5136757;27;1050;-58
2023/08/09 11:02:04;;;;;;;;;;;;;;;26.25;46.80;95241.03;5136631;27;1028;-59
2023/08/09 11:04:30;;;;;;;;;;;;;;;26.22;46.58;95233.34;5136721;27;1909;-59
2023/08/09 11:06:56;;;;;;;;;;;;;;;26.22;46.36;95227.03;5118603;27;948;-60
2023/08/09 11:09:23;;;;;;;;;;;;;;;26.32;45.81;95226.31;5136440;27;1039;-58
2023/08/09 11:11:51;;;;;;;;;;;;;;;26.23;43.11;95224.03;5136712;27;998;-58
2023/08/09 11:14:18;;;;;;;;;;;;;;;26.13;46.42;95210.22;5136644;27;1228;-59
2023/08/09 11:16:44;;;;;;;;;;;;;;;26.42;46.76;95205.31;5118248;27;1486;-58
2023/08/09 11:19:14;;;;;;;;;;;;;;;26.58;47.54;95202.69;5133899;27;1291;-58
2023/08/09 11:21:44;;;;;;;;;;;;;;;26.49;46.17;95205.09;5115485;28;1083;-59
2023/08/09 11:24:11;;;;;;;;;;;;;;;26.54;45.74;95207.91;5115514;28;1910;-59
2023/08/09 11:26:39;;;;;;;;;;;;;;;26.51;44.98;95200.19;5115653;28;984;-59
2023/08/09 11:29:05;;;;;;;;;;;;;;;26.53;45.17;95200.75;5115421;28;1052;-59
2023/08/09 11:31:42;;;;;;;;;;;;;;;26.68;44.67;95208.31;5115189;28;1330;-59
2023/08/09 11:34:14;;;;;;;;;;;;;;;26.69;42.96;95198.97;5114605;28;967;-59
2023/08/09 11:36:43;;;;;;;;;;;;;;;26.70;43.57;95194.34;5114940;28;981;-58
2023/08/09 11:39:10;;;;;;;;;;;;;;;26.62;43.02;95188.25;5115230;28;1044;-58
2023/08/09 11:41:53;;;;;;;;;;;;;;;26.65;44.31;95187.75;5115489;28;1043;-59
2023/08/09 11:44:25;;;;;;;;;;;;;;;26.76;44.48;95180.41;5114976;28;1902;-59
2023/08/09 11:46:53;;;;;;;;;;;;;;;26.58;41.98;95188.97;5115294;28;1027;-58
2023/08/09 11:49:24;;;;;;;;;;;;;;;26.60;44.84;95175.91;5115037;28;1095;-58
2023/08/09 11:51:50;;;;;;;;;;;;;;;26.77;44.47;95182.06;5115333;28;1046;-59
2023/08/09 11:54:16;;;;;;;;;;;;;;;26.80;43.31;95183.44;5114849;28;1032;-57
2023/08/09 11:56:42;;;;;;;;;;;;;;;26.81;42.23;95185.13;5115080;28;974;-60
2023/08/09 11:59:09;;;;;;;;;;;;;;;26.80;42.90;95181.53;5114846;28;1095;-59
2023/08/09 12:01:36;;;;;;;;;;;;;;;26.77;40.84;95193.03;5115061;28;996;-58
2023/08/09 12:04:06;;;;;;;;;;;;;;;26.84;42.32;95184.56;5114667;28;1990;-58
2023/08/09 12:06:36;;;;;;;;;;;;;;;26.80;40.76;95184.28;5114757;28;973;-58
2023/08/09 12:09:21;;;;;;;;;;;;;;;26.88;40.24;95180.22;5114799;28;945;-57
2023/08/09 12:11:48;;;;;;;;;;;;;;;27.03;42.10;95169.38;5114865;28;1020;-58
2023/08/09 12:14:14;;;;;;;;;;;;;;;27.16;42.38;95170.78;5114736;28;973;-57
2023/08/09 12:16:41;;;;;;;;;;;;;;;27.22;42.50;95163.41;5114520;28;1036;-58
2023/08/09 12:19:07;;;;;;;;;;;;;;;27.17;39.60;95172.47;5116433;27;1260;-58
2023/08/09 12:21:33;;;;;;;;;;;;;;;27.24;40.48;95158.50;5117072;27;1040;-58
2023/08/09 12:23:59;;;;;;;;;;;;;;;27.38;41.32;95156.97;5134881;27;1901;-57
2023/08/09 12:26:28;;;;;;;;;;;;;;;27.28;41.90;95151.44;5117002;27;977;-58
2023/08/09 12:28:54;;;;;;;;;;;;;;;27.06;40.44;95155.09;5134860;27;1024;-58
2023/08/09 12:31:20;;;;;;;;;;;;;;;26.97;40.27;95150.38;5134594;27;1226;-58
2023/08/09 12:33:46;;;;;;;;;;;;;;;26.92;41.35;95151.19;5134921;27;987;-58
2023/08/09 12:36:12;;;;;;;;;;;;;;;26.91;41.76;95140.47;5134763;27;1020;-57
2023/08/09 12:38:38;;;;;;;;;;;;;;;26.86;41.98;95142.09;5135024;27;1048;-58
2023/08/09 12:41:04;;;;;;;;;;;;;;;26.97;42.47;95137.47;5099742;27;1468;-58
2023/08/09 12:43:30;;;;;;;;;;;;;;;26.94;40.42;95132.53;5133038;27;3028;-58
2023/08/09 12:45:56;;;;;;;;;;;;;;;26.91;39.56;95143.22;5134653;27;1032;-60
2023/08/09 12:48:22;;;;;;;;;;;;;;;27.01;40.40;95133.09;5134017;27;1032;-60
2023/08/09 12:50:48;;;;;;;;;;;;;;;27.12;40.92;95133.19;5134663;27;988;-59
2023/08/09 12:53:14;;;;;;;;;;;;;;;27.32;40.89;95127.84;5134382;27;1004;-58
2023/08/09 12:55:40;;;;;;;;;;;;;;;27.32;39.67;95130.59;5116677;28;965;-58
2023/08/09 12:58:07;;;;;;;;;;;;;;;27.21;37.73;95132.41;5134471;27;976;-58
2023/08/09 13:00:33;;;;;;;;;;;;;;;27.10;39.89;95127.97;5116427;27;1067;-58